sensor_id;sensor_type;location;lat;lon;timestamp;pressure;altitude;pressure_sealevel;temperature;humidity
75418;BME280;63997;52.112;5.420;2023-02-18T00:00:26;102311.56;;;9.35;93.72
75418;BME280;63997;52.112;5.420;2023-02-18T00:02:53;102316.34;;;9.33;93.94
75418;BME280;63997;52.112;5.420;2023-02-18T00:05:21;102319.25;;;9.31;93.81
75418;BME280;63997;52.112;5.420;2023-02-18T00:07:48;102317.94;;;9.34;93.99
75418;BME280;63997;52.112;5.420;2023-02-18T00:10:14;102310.25;;;9.32;93.98
75418;BME280;63997;52.112;5.420;2023-02-18T00:12:42;102319.00;;;9.33;93.99
75418;BME280;63997;52.112;5.420;2023-02-18T00:15:09;102310.25;;;9.32;93.88
75418;BME280;63997;52.112;5.420;2023-02-18T00:17:35;102316.34;;;9.33;93.85
75418;BME280;63997;52.112;5.420;2023-02-18T00:20:04;102311.03;;;9.33;94.00
75418;BME280;63997;52.112;5.420;2023-02-18T00:22:31;102314.47;;;9.33;94.05
75418;BME280;63997;52.112;5.420;2023-02-18T00:24:58;102305.72;;;9.33;93.87
75418;BME280;63997;52.112;5.420;2023-02-18T00:27:24;102309.47;;;9.32;94.04
75418;BME280;63997;52.112;5.420;2023-02-18T00:29:50;102305.72;;;9.33;93.93
75418;BME280;63997;52.112;5.420;2023-02-18T00:32:17;102304.16;;;9.32;94.13
75418;BME280;63997;52.112;5.420;2023-02-18T00:34:43;102305.72;;;9.33;93.98
75418;BME280;63997;52.112;5.420;2023-02-18T00:37:10;102296.44;;;9.30;93.97
75418;BME280;63997;52.112;5.420;2023-02-18T00:39:36;102297.78;;;9.27;94.06
75418;BME280;63997;52.112;5.420;2023-02-18T00:42:02;102290.63;;;9.28;94.11
75418;BME280;63997;52.112;5.420;2023-02-18T00:44:29;102293.56;;;9.26;94.25
75418;BME280;63997;52.112;5.420;2023-02-18T00:46:55;102294.59;;;9.25;94.11
75418;BME280;63997;52.112;5.420;2023-02-18T00:49:22;102287.69;;;9.24;94.32
75418;BME280;63997;52.112;5.420;2023-02-18T00:51:48;102289.06;;;9.22;94.13
75418;BME280;63997;52.112;5.420;2023-02-18T00:54:14;102288.78;;;9.23;94.22
75418;BME280;63997;52.112;5.420;2023-02-18T00:56:41;102285.88;;;9.20;94.21
75418;BME280;63997;52.112;5.420;2023-02-18T00:59:07;102280.84;;;9.18;94.43
75418;BME280;63997;52.112;5.420;2023-02-18T01:01:33;102275.53;;;9.18;94.23
75418;BME280;63997;52.112;5.420;2023-02-18T01:04:00;102280.34;;;9.16;94.51
75418;BME280;63997;52.112;5.420;2023-02-18T01:06:27;102278.47;;;9.17;94.41
75418;BME280;63997;52.112;5.420;2023-02-18T01:08:53;102277.97;;;9.15;94.43
75418;BME280;63997;52.112;5.420;2023-02-18T01:11:19;102275.84;;;9.12;94.29
75418;BME280;63997;52.112;5.420;2023-02-18T01:13:46;102273.47;;;9.10;94.42
75418;BME280;63997;52.112;5.420;2023-02-18T01:16:12;102279.03;;;9.09;94.65
75418;BME280;63997;52.112;5.420;2023-02-18T01:18:39;102280.88;;;9.08;94.60
75418;BME280;63997;52.112;5.420;2023-02-18T01:21:07;102276.41;;;9.04;94.71
75418;BME280;63997;52.112;5.420;2023-02-18T01:23:38;102279.59;;;9.00;94.58
75418;BME280;63997;52.112;5.420;2023-02-18T01:26:05;102276.16;;;9.00;94.64
75418;BME280;63997;52.112;5.420;2023-02-18T01:28:32;102284.13;;;9.00;94.54
75418;BME280;63997;52.112;5.420;2023-02-18T01:31:07;102284.41;;;8.98;94.61
75418;BME280;63997;52.112;5.420;2023-02-18T01:33:34;102279.34;;;8.97;94.59
75418;BME280;63997;52.112;5.420;2023-02-18T01:36:01;102269.81;;;8.96;94.94
75418;BME280;63997;52.112;5.420;2023-02-18T01:38:27;102272.19;;;8.97;94.80
75418;BME280;63997;52.112;5.420;2023-02-18T01:40:54;102261.84;;;8.96;94.94
75418;BME280;63997;52.112;5.420;2023-02-18T01:43:21;102268.22;;;8.95;94.85
75418;BME280;63997;52.112;5.420;2023-02-18T01:46:09;102249.13;;;8.93;94.88
75418;BME280;63997;52.112;5.420;2023-02-18T01:48:41;102245.41;;;8.94;95.10
75418;BME280;63997;52.112;5.420;2023-02-18T01:51:39;102249.13;;;8.93;95.05
75418;BME280;63997;52.112;5.420;2023-02-18T01:54:20;102252.84;;;8.92;94.98
75418;BME280;63997;52.112;5.420;2023-02-18T01:56:51;102243.28;;;8.91;94.86
75418;BME280;63997;52.112;5.420;2023-02-18T01:59:23;102232.16;;;8.89;95.07
75418;BME280;63997;52.112;5.420;2023-02-18T02:01:51;102236.41;;;8.90;95.00
75418;BME280;63997;52.112;5.420;2023-02-18T02:04:18;102238.25;;;8.89;94.87
75418;BME280;63997;52.112;5.420;2023-02-18T02:06:45;102240.13;;;8.89;94.94
75418;BME280;63997;52.112;5.420;2023-02-18T02:09:13;102230.59;;;8.88;95.16
75418;BME280;63997;52.112;5.420;2023-02-18T02:26:33;102195.31;;;8.87;95.21
75418;BME280;63997;52.112;5.420;2023-02-18T02:29:23;102182.84;;;8.88;95.22
75418;BME280;63997;52.112;5.420;2023-02-18T02:34:52;102160.81;;;8.87;95.30
75418;BME280;63997;52.112;5.420;2023-02-18T02:37:40;102150.47;;;8.86;95.51
75418;BME280;63997;52.112;5.420;2023-02-18T02:40:27;102151.53;;;8.85;95.75
75418;BME280;63997;52.112;5.420;2023-02-18T02:51:29;102117.81;;;8.90;96.03
75418;BME280;63997;52.112;5.420;2023-02-18T02:54:09;102113.28;;;8.91;96.23
75418;BME280;63997;52.112;5.420;2023-02-18T02:56:37;102105.88;;;8.93;96.30
75418;BME280;63997;52.112;5.420;2023-02-18T02:59:06;102107.44;;;8.94;96.48
75418;BME280;63997;52.112;5.420;2023-02-18T03:04:30;102090.97;;;8.97;96.75
75418;BME280;63997;52.112;5.420;2023-02-18T03:07:20;102076.66;;;8.98;96.79
75418;BME280;63997;52.112;5.420;2023-02-18T03:10:02;102080.59;;;9.00;96.68
75418;BME280;63997;52.112;5.420;2023-02-18T03:12:38;102081.09;;;9.02;96.95
75418;BME280;63997;52.112;5.420;2023-02-18T03:15:19;102066.78;;;9.04;97.02
75418;BME280;63997;52.112;5.420;2023-02-18T03:17:58;102073.88;;;9.08;96.82
75418;BME280;63997;52.112;5.420;2023-02-18T03:20:56;102072.84;;;9.09;96.83
75418;BME280;63997;52.112;5.420;2023-02-18T03:23:28;102063.25;;;9.13;97.09
75418;BME280;63997;52.112;5.420;2023-02-18T03:25:58;102071.72;;;9.15;97.08
75418;BME280;63997;52.112;5.420;2023-02-18T03:28:27;102064.28;;;9.17;97.00
75418;BME280;63997;52.112;5.420;2023-02-18T03:31:09;102056.81;;;9.19;97.14
75418;BME280;63997;52.112;5.420;2023-02-18T03:33:49;102049.94;;;9.18;97.02
75418;BME280;63997;52.112;5.420;2023-02-18T03:36:20;102039.56;;;9.22;97.04
75418;BME280;63997;52.112;5.420;2023-02-18T03:38:53;102035.81;;;9.23;97.07
75418;BME280;63997;52.112;5.420;2023-02-18T03:41:21;102025.69;;;9.25;97.30
75418;BME280;63997;52.112;5.420;2023-02-18T03:43:52;102013.75;;;9.27;97.27
75418;BME280;63997;52.112;5.420;2023-02-18T03:46:19;102018.78;;;9.29;97.20
75418;BME280;63997;52.112;5.420;2023-02-18T03:48:45;102002.56;;;9.31;97.05
75418;BME280;63997;52.112;5.420;2023-02-18T03:51:12;102002.56;;;9.31;96.92
75418;BME280;63997;52.112;5.420;2023-02-18T03:53:38;102000.44;;;9.33;97.05
75418;BME280;63997;52.112;5.420;2023-02-18T03:56:05;101999.34;;;9.34;97.07
75418;BME280;63997;52.112;5.420;2023-02-18T03:58:32;101994.81;;;9.34;96.84
75418;BME280;63997;52.112;5.420;2023-02-18T04:00:58;101993.75;;;9.35;96.98
75418;BME280;63997;52.112;5.420;2023-02-18T04:03:25;101987.38;;;9.36;96.99
75418;BME280;63997;52.112;5.420;2023-02-18T04:05:51;101980.19;;;9.37;96.84
75418;BME280;63997;52.112;5.420;2023-02-18T04:08:18;101982.84;;;9.37;96.98
75418;BME280;63997;52.112;5.420;2023-02-18T04:10:44;101973.81;;;9.38;97.11
75418;BME280;63997;52.112;5.420;2023-02-18T04:13:11;101975.41;;;9.39;96.89
75418;BME280;63997;52.112;5.420;2023-02-18T04:15:37;101969.00;;;9.40;97.04
75418;BME280;63997;52.112;5.420;2023-02-18T04:18:04;101971.13;;;9.43;97.24
75418;BME280;63997;52.112;5.420;2023-02-18T04:20:30;101970.03;;;9.44;97.12
75418;BME280;63997;52.112;5.420;2023-02-18T04:22:56;101967.38;;;9.44;97.02
75418;BME280;63997;52.112;5.420;2023-02-18T04:25:23;101963.66;;;9.45;96.99
75418;BME280;63997;52.112;5.420;2023-02-18T04:27:49;101954.06;;;9.49;97.28
75418;BME280;63997;52.112;5.420;2023-02-18T04:30:16;101949.53;;;9.49;96.93
75418;BME280;63997;52.112;5.420;2023-02-18T04:32:44;101937.03;;;9.50;97.10
75418;BME280;63997;52.112;5.420;2023-02-18T04:35:10;101935.19;;;9.50;96.98
75418;BME280;63997;52.112;5.420;2023-02-18T04:37:37;101938.63;;;9.51;97.12
75418;BME280;63997;52.112;5.420;2023-02-18T04:40:03;101942.84;;;9.52;96.89
75418;BME280;63997;52.112;5.420;2023-02-18T04:42:30;101953.69;;;9.56;96.91
75418;BME280;63997;52.112;5.420;2023-02-18T04:44:56;101933.25;;;9.56;97.11
75418;BME280;63997;52.112;5.420;2023-02-18T04:47:23;101928.72;;;9.57;96.74
75418;BME280;63997;52.112;5.420;2023-02-18T04:49:49;101925.78;;;9.58;96.84
75418;BME280;63997;52.112;5.420;2023-02-18T04:52:16;101916.22;;;9.57;96.64
75418;BME280;63997;52.112;5.420;2023-02-18T04:54:42;101913.28;;;9.59;96.91
75418;BME280;63997;52.112;5.420;2023-02-18T04:57:08;101901.88;;;9.58;96.76
75418;BME280;63997;52.112;5.420;2023-02-18T04:59:35;101910.63;;;9.59;96.49
75418;BME280;63997;52.112;5.420;2023-02-18T05:02:02;101912.22;;;9.60;96.44
75418;BME280;63997;52.112;5.420;2023-02-18T05:04:29;101898.94;;;9.60;96.56
75418;BME280;63997;52.112;5.420;2023-02-18T05:06:55;101900.78;;;9.59;96.46
75418;BME280;63997;52.112;5.420;2023-02-18T05:09:22;101915.16;;;9.58;96.29
75418;BME280;63997;52.112;5.420;2023-02-18T05:11:48;101908.25;;;9.57;96.60
75418;BME280;63997;52.112;5.420;2023-02-18T05:14:15;101906.69;;;9.56;96.29
75418;BME280;63997;52.112;5.420;2023-02-18T05:16:41;101907.78;;;9.55;96.23
75418;BME280;63997;52.112;5.420;2023-02-18T05:19:11;101901.94;;;9.53;96.23
75418;BME280;63997;52.112;5.420;2023-02-18T05:21:39;101904.31;;;9.54;96.31
75418;BME280;63997;52.112;5.420;2023-02-18T05:24:06;101910.97;;;9.52;96.48
75418;BME280;63997;52.112;5.420;2023-02-18T05:26:33;101898.78;;;9.51;96.57
75418;BME280;63997;52.112;5.420;2023-02-18T05:29:00;101902.53;;;9.50;96.28
75418;BME280;63997;52.112;5.420;2023-02-18T05:31:26;101891.91;;;9.50;96.40
75418;BME280;63997;52.112;5.420;2023-02-18T05:33:53;101898.28;;;9.49;96.40
75418;BME280;63997;52.112;5.420;2023-02-18T05:36:19;101881.28;;;9.50;96.55
75418;BME280;63997;52.112;5.420;2023-02-18T05:38:46;101892.69;;;9.50;96.27
75418;BME280;63997;52.112;5.420;2023-02-18T05:41:14;101883.16;;;9.49;96.38
75418;BME280;63997;52.112;5.420;2023-02-18T05:43:40;101881.28;;;9.50;96.26
75418;BME280;63997;52.112;5.420;2023-02-18T05:46:25;101882.84;;;9.51;96.17
75418;BME280;63997;52.112;5.420;2023-02-18T05:48:51;101863.47;;;9.50;96.21
75418;BME280;63997;52.112;5.420;2023-02-18T05:51:18;101857.09;;;9.51;96.21
75418;BME280;63997;52.112;5.420;2023-02-18T05:53:45;101866.13;;;9.50;96.29
75418;BME280;63997;52.112;5.420;2023-02-18T05:56:11;101873.81;;;9.52;96.38
75418;BME280;63997;52.112;5.420;2023-02-18T05:58:38;101875.38;;;9.53;96.16
75418;BME280;63997;52.112;5.420;2023-02-18T06:01:04;101859.97;;;9.55;96.29
75418;BME280;63997;52.112;5.420;2023-02-18T06:03:30;101855.75;;;9.54;96.23
75418;BME280;63997;52.112;5.420;2023-02-18T06:05:57;101856.00;;;9.52;96.00
75418;BME280;63997;52.112;5.420;2023-02-18T06:08:23;101868.19;;;9.53;96.13
75418;BME280;63997;52.112;5.420;2023-02-18T06:10:49;101867.94;;;9.55;96.14
75418;BME280;63997;52.112;5.420;2023-02-18T06:13:16;101868.72;;;9.56;96.12
75418;BME280;63997;52.112;5.420;2023-02-18T06:15:43;101871.09;;;9.57;96.10
75418;BME280;63997;52.112;5.420;2023-02-18T06:18:09;101865.78;;;9.57;96.10
75418;BME280;63997;52.112;5.420;2023-02-18T06:20:35;101871.09;;;9.57;96.06
75418;BME280;63997;52.112;5.420;2023-02-18T06:23:02;101885.66;;;9.60;96.19
75418;BME280;63997;52.112;5.420;2023-02-18T06:25:28;101869.75;;;9.60;95.86
75418;BME280;63997;52.112;5.420;2023-02-18T06:27:54;101873.19;;;9.60;95.90
75418;BME280;63997;52.112;5.420;2023-02-18T06:30:21;101873.69;;;9.62;95.96
75418;BME280;63997;52.112;5.420;2023-02-18T06:32:49;101869.94;;;9.63;95.67
75418;BME280;63997;52.112;5.420;2023-02-18T06:35:16;101863.84;;;9.63;95.57
75418;BME280;63997;52.112;5.420;2023-02-18T06:37:42;101868.84;;;9.64;95.80
75418;BME280;63997;52.112;5.420;2023-02-18T06:40:10;101875.25;;;9.63;95.90
75418;BME280;63997;52.112;5.420;2023-02-18T06:42:36;101879.78;;;9.63;95.95
75418;BME280;63997;52.112;5.420;2023-02-18T06:45:03;101865.72;;;9.62;95.83
75418;BME280;63997;52.112;5.420;2023-02-18T06:47:32;101872.41;;;9.60;95.84
75418;BME280;63997;52.112;5.420;2023-02-18T06:49:59;101880.38;;;9.60;95.71
75418;BME280;63997;52.112;5.420;2023-02-18T06:52:26;101886.72;;;9.59;95.83
75418;BME280;63997;52.112;5.420;2023-02-18T06:54:52;101881.72;;;9.57;96.09
75418;BME280;63997;52.112;5.420;2023-02-18T06:57:18;101874.53;;;9.58;95.91
75418;BME280;63997;52.112;5.420;2023-02-18T06:59:45;101867.34;;;9.58;95.83
75418;BME280;63997;52.112;5.420;2023-02-18T07:02:14;101871.09;;;9.57;96.11
75418;BME280;63997;52.112;5.420;2023-02-18T07:04:40;101868.44;;;9.57;95.97
75418;BME280;63997;52.112;5.420;2023-02-18T07:07:07;101862.63;;;9.55;95.85
75418;BME280;63997;52.112;5.420;2023-02-18T07:09:33;101849.34;;;9.55;96.02
75418;BME280;63997;52.112;5.420;2023-02-18T07:11:59;101856.53;;;9.54;95.80
75418;BME280;63997;52.112;5.420;2023-02-18T07:14:26;101862.63;;;9.55;95.88
75418;BME280;63997;52.112;5.420;2023-02-18T07:16:53;101858.88;;;9.56;95.70
75418;BME280;63997;52.112;5.420;2023-02-18T07:19:20;101853.56;;;9.56;95.85
75418;BME280;63997;52.112;5.420;2023-02-18T07:21:46;101858.09;;;9.56;95.65
75418;BME280;63997;52.112;5.420;2023-02-18T07:24:12;101857.03;;;9.57;95.71
75418;BME280;63997;52.112;5.420;2023-02-18T07:26:39;101859.97;;;9.55;95.54
75418;BME280;63997;52.112;5.420;2023-02-18T07:29:05;101859.97;;;9.55;95.72
75418;BME280;63997;52.112;5.420;2023-02-18T07:31:32;101857.56;;;9.53;95.59
75418;BME280;63997;52.112;5.420;2023-02-18T07:33:59;101871.69;;;9.54;95.75
75418;BME280;63997;52.112;5.420;2023-02-18T07:36:25;101857.88;;;9.52;95.44
75418;BME280;63997;52.112;5.420;2023-02-18T07:38:52;101863.19;;;9.52;95.38
75418;BME280;63997;52.112;5.420;2023-02-18T07:41:20;101852.56;;;9.52;95.41
75418;BME280;63997;52.112;5.420;2023-02-18T07:43:47;101854.44;;;9.51;95.24
75418;BME280;63997;52.112;5.420;2023-02-18T07:46:14;101851.47;;;9.53;95.32
75418;BME280;63997;52.112;5.420;2023-02-18T07:48:41;101835.28;;;9.54;94.98
75418;BME280;63997;52.112;5.420;2023-02-18T07:51:09;101852.00;;;9.55;94.92
75418;BME280;63997;52.112;5.420;2023-02-18T07:53:37;101835.00;;;9.56;94.71
75418;BME280;63997;52.112;5.420;2023-02-18T07:56:04;101848.25;;;9.56;94.71
75418;BME280;63997;52.112;5.420;2023-02-18T07:58:34;101852.00;;;9.55;94.47
75418;BME280;63997;52.112;5.420;2023-02-18T08:01:08;101857.31;;;9.55;94.28
75418;BME280;63997;52.112;5.420;2023-02-18T08:03:35;101862.63;;;9.55;94.42
75418;BME280;63997;52.112;5.420;2023-02-18T08:06:04;101867.16;;;9.54;93.92
75418;BME280;63997;52.112;5.420;2023-02-18T08:08:31;101863.97;;;9.52;93.92
75418;BME280;63997;52.112;5.420;2023-02-18T08:11:01;101868.50;;;9.52;93.89
75418;BME280;63997;52.112;5.420;2023-02-18T08:13:43;101872.22;;;9.51;93.51
75418;BME280;63997;52.112;5.420;2023-02-18T08:16:12;101883.63;;;9.51;93.61
75418;BME280;63997;52.112;5.420;2023-02-18T08:18:38;101869.56;;;9.51;93.24
75418;BME280;63997;52.112;5.420;2023-02-18T08:21:05;101877.84;;;9.49;93.33
75418;BME280;63997;52.112;5.420;2023-02-18T08:23:31;101873.59;;;9.48;93.42
75418;BME280;63997;52.112;5.420;2023-02-18T08:25:57;101881.56;;;9.48;93.32
75418;BME280;63997;52.112;5.420;2023-02-18T08:28:24;101875.19;;;9.49;93.29
75418;BME280;63997;52.112;5.420;2023-02-18T08:30:52;101870.66;;;9.50;93.20
75418;BME280;63997;52.112;5.420;2023-02-18T08:33:19;101874.94;;;9.46;92.98
75418;BME280;63997;52.112;5.420;2023-02-18T08:35:47;101889.81;;;9.47;92.88
75418;BME280;63997;52.112;5.420;2023-02-18T08:38:17;101897.28;;;9.45;92.70
75418;BME280;63997;52.112;5.420;2023-02-18T08:40:44;101893.03;;;9.44;92.95
75418;BME280;63997;52.112;5.420;2023-02-18T08:43:12;101893.03;;;9.44;93.04
75418;BME280;63997;52.112;5.420;2023-02-18T08:45:41;101886.16;;;9.43;93.02
75418;BME280;63997;52.112;5.420;2023-02-18T08:48:10;101893.59;;;9.41;92.97
75418;BME280;63997;52.112;5.420;2023-02-18T08:50:46;101892.03;;;9.40;92.98
75418;BME280;63997;52.112;5.420;2023-02-18T08:53:13;101893.59;;;9.41;92.97
75418;BME280;63997;52.112;5.420;2023-02-18T08:55:40;101885.13;;;9.39;92.82
75418;BME280;63997;52.112;5.420;2023-02-18T08:58:07;101885.69;;;9.36;92.80
75418;BME280;63997;52.112;5.420;2023-02-18T09:00:34;101887.06;;;9.33;92.67
75418;BME280;63997;52.112;5.420;2023-02-18T09:03:01;101881.22;;;9.31;92.63
75418;BME280;63997;52.112;5.420;2023-02-18T09:05:27;101893.22;;;9.28;92.31
75418;BME280;63997;52.112;5.420;2023-02-18T09:07:54;101900.63;;;9.32;92.45
75418;BME280;63997;52.112;5.420;2023-02-18T09:10:20;101897.75;;;9.28;92.29
75418;BME280;63997;52.112;5.420;2023-02-18T09:12:47;101887.41;;;9.26;92.22
75418;BME280;63997;52.112;5.420;2023-02-18T09:15:14;101904.91;;;9.27;92.22
75418;BME280;63997;52.112;5.420;2023-02-18T09:17:40;101902.25;;;9.27;91.98
75418;BME280;63997;52.112;5.420;2023-02-18T09:20:07;101889.78;;;9.28;92.45
75418;BME280;63997;52.112;5.420;2023-02-18T09:22:33;101895.31;;;9.32;92.34
75418;BME280;63997;52.112;5.420;2023-02-18T09:25:01;101896.91;;;9.33;92.27
75418;BME280;63997;52.112;5.420;2023-02-18T09:27:31;101905.13;;;9.31;92.10
75418;BME280;63997;52.112;5.420;2023-02-18T09:29:57;101906.19;;;9.30;91.96
75418;BME280;63997;52.112;5.420;2023-02-18T09:32:23;101899.81;;;9.31;92.16
75418;BME280;63997;52.112;5.420;2023-02-18T09:35:00;101895.31;;;9.32;92.05
75418;BME280;63997;52.112;5.420;2023-02-18T09:37:26;101903.00;;;9.33;92.00
75418;BME280;63997;52.112;5.420;2023-02-18T09:39:53;101906.94;;;9.36;91.96
75418;BME280;63997;52.112;5.420;2023-02-18T09:42:26;101908.00;;;9.35;91.71
75418;BME280;63997;52.112;5.420;2023-02-18T09:44:56;101903.19;;;9.37;91.57
75418;BME280;63997;52.112;5.420;2023-02-18T09:47:34;101912.75;;;9.38;91.44
75418;BME280;63997;52.112;5.420;2023-02-18T09:50:07;101911.69;;;9.39;91.00
75418;BME280;63997;52.112;5.420;2023-02-18T09:52:35;101914.84;;;9.41;91.00
75418;BME280;63997;52.112;5.420;2023-02-18T09:55:22;101918.56;;;9.40;91.33
75418;BME280;63997;52.112;5.420;2023-02-18T09:57:51;101918.56;;;9.40;91.36
75418;BME280;63997;52.112;5.420;2023-02-18T10:00:27;101924.38;;;9.42;90.84
75418;BME280;63997;52.112;5.420;2023-02-18T10:02:56;101919.59;;;9.44;90.86
75418;BME280;63997;52.112;5.420;2023-02-18T10:05:25;101921.16;;;9.45;91.09
75418;BME280;63997;52.112;5.420;2023-02-18T10:07:55;101927.25;;;9.45;90.84
75418;BME280;63997;52.112;5.420;2023-02-18T10:10:32;101923.25;;;9.48;90.72
75418;BME280;63997;52.112;5.420;2023-02-18T10:13:00;101923.19;;;9.53;90.97
75418;BME280;63997;52.112;5.420;2023-02-18T10:15:29;101930.88;;;9.54;90.54
75418;BME280;63997;52.112;5.420;2023-02-18T10:17:57;101927.34;;;9.59;90.76
75418;BME280;63997;52.112;5.420;2023-02-18T10:20:27;101928.38;;;9.63;90.48
75418;BME280;63997;52.112;5.420;2023-02-18T10:22:56;101931.19;;;9.72;90.69
75418;BME280;63997;52.112;5.420;2023-02-18T10:25:24;101928.72;;;9.75;90.41
75418;BME280;63997;52.112;5.420;2023-02-18T10:27:52;101931.31;;;9.80;90.50
75418;BME280;63997;52.112;5.420;2023-02-18T10:30:35;101929.19;;;9.83;90.26
75418;BME280;63997;52.112;5.420;2023-02-18T10:33:32;101944.03;;;9.84;90.11
75418;BME280;63997;52.112;5.420;2023-02-18T10:36:15;101932.84;;;9.87;90.04
75418;BME280;63997;52.112;5.420;2023-02-18T10:42:00;101937.72;;;9.98;89.74
75418;BME280;63997;52.112;5.420;2023-02-18T10:50:39;101955.69;;;10.25;89.08
75418;BME280;63997;52.112;5.420;2023-02-18T10:53:23;101954.34;;;10.28;89.05
75418;BME280;63997;52.112;5.420;2023-02-18T10:55:53;101953.56;;;10.27;88.37
75418;BME280;63997;52.112;5.420;2023-02-18T10:58:42;101954.53;;;10.31;88.46
75418;BME280;63997;52.112;5.420;2023-02-18T11:01:16;101941.16;;;10.37;88.53
75418;BME280;63997;52.112;5.420;2023-02-18T11:06:25;101943.66;;;10.47;88.44
75418;BME280;63997;52.112;5.420;2023-02-18T11:08:56;101946.25;;;10.52;88.42
75418;BME280;63997;52.112;5.420;2023-02-18T11:11:28;101929.69;;;10.55;88.18
75418;BME280;63997;52.112;5.420;2023-02-18T11:13:58;101939.19;;;10.61;87.89
75418;BME280;63997;52.112;5.420;2023-02-18T11:16:40;101952.03;;;10.73;87.82
75418;BME280;63997;52.112;5.420;2023-02-18T11:19:45;101937.34;;;10.75;87.48
75418;BME280;63997;52.112;5.420;2023-02-18T11:22:34;101944.66;;;10.83;87.57
75418;BME280;63997;52.112;5.420;2023-02-18T11:27:48;101942.50;;;10.85;86.04
75418;BME280;63997;52.112;5.420;2023-02-18T11:30:20;101949.00;;;10.79;86.98
75418;BME280;63997;52.112;5.420;2023-02-18T11:32:53;101930.94;;;10.76;87.59
75418;BME280;63997;52.112;5.420;2023-02-18T11:35:24;101948.78;;;10.76;87.68
75418;BME280;63997;52.112;5.420;2023-02-18T11:37:51;101947.97;;;10.75;87.58
75418;BME280;63997;52.112;5.420;2023-02-18T11:40:30;101949.56;;;10.76;87.57
75418;BME280;63997;52.112;5.420;2023-02-18T11:43:12;101948.59;;;10.72;87.56
75418;BME280;63997;52.112;5.420;2023-02-18T11:45:40;101931.63;;;10.68;88.15
75418;BME280;63997;52.112;5.420;2023-02-18T11:48:14;101950.31;;;10.63;87.90
75418;BME280;63997;52.112;5.420;2023-02-18T11:50:41;101954.63;;;10.59;88.65
75418;BME280;63997;52.112;5.420;2023-02-18T11:53:28;101948.75;;;10.62;89.41
75418;BME280;63997;52.112;5.420;2023-02-18T11:55:58;101954.47;;;10.69;89.20
75418;BME280;63997;52.112;5.420;2023-02-18T11:58:25;101948.38;;;10.69;89.48
75418;BME280;63997;52.112;5.420;2023-02-18T12:00:58;101957.44;;;10.68;89.08
75418;BME280;63997;52.112;5.420;2023-02-18T12:03:43;101959.00;;;10.69;89.60
75418;BME280;63997;52.112;5.420;2023-02-18T12:06:25;101945.94;;;10.72;89.43
75418;BME280;63997;52.112;5.420;2023-02-18T12:08:57;101952.72;;;10.78;88.98
75418;BME280;63997;52.112;5.420;2023-02-18T12:11:31;101948.19;;;10.79;88.95
75418;BME280;63997;52.112;5.420;2023-02-18T12:13:59;101938.81;;;10.81;88.73
75418;BME280;63997;52.112;5.420;2023-02-18T12:24:44;101932.72;;;10.81;87.98
75418;BME280;63997;52.112;5.420;2023-02-18T12:27:32;101936.47;;;10.80;88.07
75418;BME280;63997;52.112;5.420;2023-02-18T12:33:27;101935.88;;;10.83;87.67
75418;BME280;63997;52.112;5.420;2023-02-18T12:39:10;101931.16;;;10.94;87.64
75418;BME280;63997;52.112;5.420;2023-02-18T12:44:40;101942.22;;;11.01;87.14
75418;BME280;63997;52.112;5.420;2023-02-18T12:50:27;101945.66;;;11.15;86.84
75418;BME280;63997;52.112;5.420;2023-02-18T12:53:11;101941.16;;;11.29;87.44
75418;BME280;63997;52.112;5.420;2023-02-18T12:56:31;101950.00;;;11.38;86.43
75418;BME280;63997;52.112;5.420;2023-02-18T13:01:42;101952.47;;;11.49;86.24
75418;BME280;63997;52.112;5.420;2023-02-18T13:04:28;101952.97;;;11.51;85.89
75418;BME280;63997;52.112;5.420;2023-02-18T13:15:19;101955.72;;;11.32;85.69
75418;BME280;63997;52.112;5.420;2023-02-18T13:17:49;101961.47;;;11.25;85.59
75418;BME280;63997;52.112;5.420;2023-02-18T13:20:20;101949.22;;;11.24;85.53
75418;BME280;63997;52.112;5.420;2023-02-18T13:22:49;101951.38;;;11.22;85.97
75418;BME280;63997;52.112;5.420;2023-02-18T13:25:19;101963.63;;;11.23;86.08
75418;BME280;63997;52.112;5.420;2023-02-18T13:31:00;101955.56;;;11.28;85.88
75418;BME280;63997;52.112;5.420;2023-02-18T13:33:35;101956.34;;;11.29;85.94
75418;BME280;63997;52.112;5.420;2023-02-18T13:39:05;101951.38;;;11.22;85.25
75418;BME280;63997;52.112;5.420;2023-02-18T13:41:38;101961.25;;;11.22;86.19
75418;BME280;63997;52.112;5.420;2023-02-18T13:46:57;101953.78;;;11.24;86.22
75418;BME280;63997;52.112;5.420;2023-02-18T13:49:27;101961.47;;;11.25;86.29
75418;BME280;63997;52.112;5.420;2023-02-18T13:51:57;101957.13;;;11.29;86.10
75418;BME280;63997;52.112;5.420;2023-02-18T13:54:44;101961.84;;;11.32;85.87
75418;BME280;63997;52.112;5.420;2023-02-18T13:57:18;101959.19;;;11.32;85.38
75418;BME280;63997;52.112;5.420;2023-02-18T13:59:48;101967.16;;;11.32;84.95
75418;BME280;63997;52.112;5.420;2023-02-18T14:09:45;101965.50;;;11.36;85.14
75418;BME280;63997;52.112;5.420;2023-02-18T14:25:53;101973.78;;;11.62;83.96
75418;BME280;63997;52.112;5.420;2023-02-18T14:32:28;101986.59;;;11.74;84.26
75418;BME280;63997;52.112;5.420;2023-02-18T14:37:11;101984.53;;;11.85;84.30
75418;BME280;63997;52.112;5.420;2023-02-18T14:42:41;101985.50;;;11.89;83.73
75418;BME280;63997;52.112;5.420;2023-02-18T14:48:57;101968.13;;;11.91;83.35
75418;BME280;63997;52.112;5.420;2023-02-18T14:50:55;101974.06;;;11.88;83.55
75418;BME280;63997;52.112;5.420;2023-02-18T14:53:23;101962.91;;;11.86;83.55
75418;BME280;63997;52.112;5.420;2023-02-18T14:55:56;101974.66;;;11.85;83.08
75418;BME280;63997;52.112;5.420;2023-02-18T14:58:29;101978.44;;;11.84;83.53
75418;BME280;63997;52.112;5.420;2023-02-18T15:01:15;101984.81;;;11.83;83.55
75418;BME280;63997;52.112;5.420;2023-02-18T15:03:42;101979.28;;;11.80;83.32
75418;BME280;63997;52.112;5.420;2023-02-18T15:08:53;101984.63;;;11.80;83.54
75418;BME280;63997;52.112;5.420;2023-02-18T15:11:22;101981.16;;;11.79;83.50
75418;BME280;63997;52.112;5.420;2023-02-18T15:13:50;101981.75;;;11.76;83.73